Craig, MO (64437)

9:26 AM CDT on March 26, 2017 (GMT -0500)
Brenner | | Change Station

Elev 984 ft 40.08 °N, 95.59 °W | Updated 25 minutes ago

Overcast
Overcast
43 °F
Feels Like 41 °F
N
4
Wind Variable Wind from NW

Today
High -- | Low -- °F
--% Chance of Precip.
Yesterday
High -- | Low -- °F
Precip. -- in
Pressure 29.90 in
Visibility 10.0 miles
Clouds Mostly Cloudy 800 ft
Overcast 1900 ft
Windchill 41 °F
Dew Point 41 °F
Humidity 93%
Rainfall 0.00 in
Snow Depth Not available.
7:14 AM 7:40 PM
Waning Crescent, 3% visible
SPECI KFNB 261401Z AUTO 32003KT 10SM BKN008 OVC019 06/05 A2990 RMK AO2 CIG 006V013 T00610050
Pressure 29.90 in
Visibility 10.0 miles
Clouds Mostly Cloudy 800 ft
Overcast 1900 ft
Windchill 41 °F
Dew Point 41 °F
Humidity 93%
Rainfall 0.00 in
Snow Depth Not available.
7:14 AM 7:40 PM
Waning Crescent, 3% visible
SPECI KFNB 261401Z AUTO 32003KT 10SM BKN008 OVC019 06/05 A2990 RMK AO2 CIG 006V013 T00610050

Get Severe Weather Alerts

Thanks for signing up!

Be on the lookout for a verification email in your inbox.

You'll start receiving the daily forecast at 8 AM.

×

10-Day Weather Forecast

Almanac

Astronomy

Mar. 26, 2017 Rise Set
Actual Time
Civil Twilight
Nautical Twilight
Astronomical Twilight
Moon
Length of Visible Light
Length of Day
Tomorrow will be .
, % of the Moon is Illuminated

Today's Extremes

State Highs State Lows

Community

WunderPhotos

Upload Photos

1,962,540 photos uploaded!

WunderBlog® & News

Nearby

Air Quality

  Air Quality AQ Index Pollutant
Not available.

Snow Depth

Station Depth Elevation

Earthquake Activity

City Distance Mag. Time & Date
Minimum magnitude displayed is 2.5.

Earthquake Activity

City Distance Mag. Time & Date
Minimum magnitude displayed is 2.5.

Coastal Water Temperatures

Place Temperature

Stations

Nearby Weather Stations

Station Location Temp. Windchill Dew Point Humidity Wind Precip. Elev Updated Type
                   

Watches & Warnings

There are currently no watches in effect.